Time;durP1;ratioP1;P1;durP2;ratioP2;P2;SDS_P1;SDS_P2;PMS_P1;PMS_P2;Temp;Humidity;BMP_temperature;BMP_pressure;BME280_temperature;BME280_humidity;BME280_pressure;Samples;Min_cycle;Max_cycle;Signal;HPM_P1;HPM_P2
2022/09/12 00:01:58;;;;;;;17.60;8.52;;;;;;;27.35;41.72;100952.31;5001206;28;20659;-85
2022/09/12 00:04:27;;;;;;;19.92;8.88;;;;;;;27.39;41.29;100953.06;5015559;28;20109;-84
2022/09/12 00:06:56;;;;;;;19.30;8.38;;;;;;;27.42;41.64;100950.28;5012759;28;20132;-85
2022/09/12 00:09:24;;;;;;;17.50;8.98;;;;;;;27.40;42.17;100944.16;5018829;28;20042;-86
2022/09/12 00:11:53;;;;;;;18.02;8.93;;;;;;;27.39;42.26;100947.75;5021683;28;20605;-86
2022/09/12 00:14:21;;;;;;;15.77;8.43;;;;;;;27.16;40.84;100930.84;5014605;28;20049;-83
2022/09/12 00:16:52;;;;;;;14.85;8.60;;;;;;;27.12;40.84;100915.94;5014135;28;20169;-80
2022/09/12 00:19:21;;;;;;;14.13;8.63;;;;;;;27.23;42.86;100943.00;4995066;28;20070;-82
2022/09/12 00:21:53;;;;;;;17.52;9.05;;;;;;;27.11;42.85;100944.28;5002635;28;20139;-87
2022/09/12 00:24:21;;;;;;;15.50;9.15;;;;;;;27.00;42.15;100940.31;4997696;28;20066;-87
2022/09/12 00:26:50;;;;;;;17.25;8.70;;;;;;;27.01;42.08;100960.59;4992560;28;20399;-85
2022/09/12 00:29:21;;;;;;;16.23;9.20;;;;;;;27.01;42.18;100960.59;4996453;28;20050;-84
2022/09/12 00:31:51;;;;;;;15.45;8.23;;;;;;;27.01;44.50;100963.25;4996770;28;20053;-85
2022/09/12 00:34:20;;;;;;;15.98;8.77;;;;;;;27.01;41.63;100963.25;4994088;28;20069;-82
2022/09/12 00:36:50;;;;;;;15.75;8.35;;;;;;;26.85;43.12;100941.72;5002609;28;20050;-85
2022/09/12 00:39:18;;;;;;;17.38;8.52;;;;;;;26.98;43.18;100968.69;5002922;28;20604;-85
2022/09/12 00:41:47;;;;;;;16.75;9.38;;;;;;;26.95;43.13;100967.88;4990014;28;20507;-83
2022/09/12 00:44:50;;;;;;;20.33;9.05;;;;;;;26.80;43.01;100952.50;4983242;28;20576;-80
2022/09/12 00:47:26;;;;;;;15.57;8.80;;;;;;;26.71;43.64;100951.03;4986126;28;20147;-81
2022/09/12 00:50:00;;;;;;;15.25;8.32;;;;;;;26.71;43.47;100972.28;4990043;28;20058;-83
2022/09/12 00:52:34;;;;;;;13.18;8.10;;;;;;;26.53;43.52;100960.44;4994231;28;20412;-84
2022/09/12 00:55:07;;;;;;;14.18;8.52;;;;;;;26.57;44.96;100976.28;4995833;28;20595;-77
2022/09/12 00:57:43;;;;;;;14.18;8.65;;;;;;;26.41;44.34;100960.88;4987422;28;20444;-84
2022/09/12 01:00:15;;;;;;;18.67;8.93;;;;;;;26.37;44.70;100959.22;4998122;28;20060;-84
2022/09/12 01:02:58;;;;;;;13.68;8.73;;;;;;;26.37;44.65;100963.69;4999772;28;20062;-85
2022/09/12 01:05:29;;;;;;;16.92;8.48;;;;;;;26.48;44.64;100974.78;4994717;28;21037;-88
2022/09/12 01:07:58;;;;;;;14.48;8.20;;;;;;;26.52;44.91;100987.03;4995938;28;20056;-85
2022/09/12 01:10:27;;;;;;;17.50;8.90;;;;;;;26.53;45.25;100989.63;4994602;28;20492;-84
2022/09/12 01:12:56;;;;;;;14.63;8.18;;;;;;;26.47;44.82;100979.22;4994246;28;20088;-86
2022/09/12 01:15:25;;;;;;;14.27;8.38;;;;;;;26.49;44.53;100982.69;5001162;28;20041;-83
2022/09/12 01:18:10;;;;;;;16.80;8.10;;;;;;;26.50;44.43;100984.44;5000106;28;20048;-86
2022/09/12 01:21:10;;;;;;;17.08;9.10;;;;;;;26.42;44.33;100975.84;4995205;28;20056;-87
2022/09/12 01:24:26;;;;;;;15.30;8.23;;;;;;;26.38;44.35;100974.22;4995509;28;20415;-81
2022/09/12 01:27:48;;;;;;;17.40;8.50;;;;;;;26.31;44.44;100972.69;4978273;28;20058;-77
2022/09/12 01:30:32;;;;;;;17.38;9.13;;;;;;;26.33;44.71;100984.13;4910620;29;20048;-77
2022/09/12 01:33:19;;;;;;;16.60;8.98;;;;;;;26.26;44.90;100987.88;4978181;28;20125;-79
2022/09/12 01:35:56;;;;;;;12.52;8.43;;;;;;;26.11;44.93;100976.88;4991514;28;20401;-79
2022/09/12 01:38:31;;;;;;;14.85;8.13;;;;;;;26.12;45.14;100988.34;4995802;28;20038;-76
2022/09/12 01:41:10;;;;;;;17.27;8.57;;;;;;;26.02;45.17;100984.22;4990546;28;20495;-76
2022/09/12 01:43:48;;;;;;;16.67;8.57;;;;;;;26.02;45.12;100998.38;4987441;28;20058;-75
2022/09/12 01:46:22;;;;;;;21.30;8.68;;;;;;;25.89;45.75;100983.75;4999440;28;20042;-77
2022/09/12 01:48:58;;;;;;;18.88;9.07;;;;;;;25.87;46.15;100985.56;4996216;28;20159;-77
2022/09/12 01:51:33;;;;;;;18.63;7.97;;;;;;;25.81;46.39;100983.06;5000536;28;20463;-77
2022/09/12 01:54:07;;;;;;;11.85;6.75;;;;;;;25.73;46.56;100980.66;4996014;28;20060;-79
2022/09/12 01:56:39;;;;;;;19.95;7.93;;;;;;;25.74;46.97;100992.13;4999917;28;20500;-78
2022/09/12 01:59:14;;;;;;;16.52;7.90;;;;;;;25.59;47.08;100978.41;4990758;28;20161;-78
2022/09/12 02:01:51;;;;;;;13.07;7.72;;;;;;;25.52;47.39;100981.25;4980897;28;20089;-79
2022/09/12 02:04:23;;;;;;;20.42;7.65;;;;;;;25.46;48.09;100987.63;4986109;28;20042;-79
2022/09/12 02:06:58;;;;;;;20.58;8.30;;;;;;;25.42;47.93;100999.22;4978678;28;20055;-77
2022/09/12 02:09:32;;;;;;;18.73;7.85;;;;;;;25.31;48.25;100993.34;5001542;28;20050;-76
2022/09/12 02:12:04;;;;;;;18.60;8.20;;;;;;;25.20;48.63;100981.28;4991931;28;20407;-74
2022/09/12 02:14:38;;;;;;;15.70;7.60;;;;;;;25.20;48.81;101002.47;5002749;28;20064;-76
2022/09/12 02:17:12;;;;;;;15.23;7.55;;;;;;;25.09;49.04;100983.31;4990784;28;20039;-73
2022/09/12 02:19:46;;;;;;;16.95;7.72;;;;;;;24.91;48.85;100960.00;5007937;28;20526;-74
2022/09/12 02:22:18;;;;;;;14.52;7.88;;;;;;;24.95;50.87;100975.75;5010846;28;20096;-74
2022/09/12 02:24:51;;;;;;;18.63;7.60;;;;;;;24.84;50.68;100973.38;5008149;28;20281;-80
2022/09/12 02:27:24;;;;;;;17.55;7.88;;;;;;;24.69;51.22;100971.13;5001888;28;20410;-77
2022/09/12 02:29:54;;;;;;;14.25;7.07;;;;;;;24.69;50.83;100994.06;5004284;28;20408;-74
2022/09/12 02:32:31;;;;;;;15.10;7.07;;;;;;;24.51;51.57;100974.22;5007077;28;20053;-74
2022/09/12 02:35:05;;;;;;;14.75;6.97;;;;;;;24.59;51.39;100981.06;5002939;28;20129;-75
2022/09/12 02:37:46;;;;;;;15.35;7.68;;;;;;;24.59;51.64;100986.38;5004006;28;20880;-78
2022/09/12 02:40:16;;;;;;;22.13;7.82;;;;;;;24.49;51.22;100968.09;5006004;28;20042;-76
2022/09/12 02:42:45;;;;;;;15.10;7.55;;;;;;;24.53;51.23;100983.88;5007851;28;20065;-77
2022/09/12 02:45:14;;;;;;;14.80;7.10;;;;;;;24.52;51.56;100981.28;5006644;28;20531;-74
2022/09/12 02:47:48;;;;;;;15.75;7.72;;;;;;;24.48;51.48;100977.81;5007966;28;20401;-74
2022/09/12 02:50:18;;;;;;;19.02;7.47;;;;;;;24.40;52.47;100993.00;5002005;28;20097;-72
2022/09/12 02:52:47;;;;;;;17.88;8.27;;;;;;;24.16;53.28;100991.78;5008784;28;20050;-73
2022/09/12 02:55:16;;;;;;;20.05;7.90;;;;;;;24.03;53.21;100993.88;5004184;28;20049;-73
2022/09/12 02:57:45;;;;;;;18.67;8.10;;;;;;;24.01;53.17;101014.16;5007272;28;20411;-74
2022/09/12 03:00:15;;;;;;;18.58;7.97;;;;;;;23.93;53.62;101021.38;4999537;28;20060;-73
2022/09/12 03:03:10;;;;;;;23.83;7.38;;;;;;;23.88;54.00;101018.84;4999737;28;20060;-75
2022/09/12 03:05:48;;;;;;;15.70;7.60;;;;;;;23.80;53.40;101007.53;5010279;28;20046;-76
2022/09/12 03:08:45;;;;;;;20.85;8.80;;;;;;;23.83;53.55;101011.00;5003787;28;20511;-75
2022/09/12 03:11:41;;;;;;;18.77;8.30;;;;;;;23.84;53.33;101017.16;5007276;28;20042;-76
2022/09/12 03:14:23;;;;;;;15.38;7.55;;;;;;;23.82;53.63;101016.31;5005625;28;20081;-74
2022/09/12 03:17:02;;;;;;;19.37;7.83;;;;;;;23.78;54.56;101017.31;4996508;28;20419;-79
2022/09/12 03:19:52;;;;;;;19.45;8.30;;;;;;;23.80;54.12;101018.13;5011455;28;20061;-80
2022/09/12 03:22:29;;;;;;;17.65;7.80;;;;;;;23.80;55.38;101026.94;5004002;28;20054;-79
2022/09/12 03:25:04;;;;;;;17.20;8.52;;;;;;;23.76;55.39;101019.97;5002309;28;20446;-83
2022/09/12 03:27:37;;;;;;;15.88;7.88;;;;;;;23.66;54.98;100999.03;5012348;28;20046;-81
2022/09/12 03:30:07;;;;;;;18.25;7.72;;;;;;;23.66;55.01;100999.03;5009659;28;20526;-80
2022/09/12 03:32:44;;;;;;;15.68;7.82;;;;;;;23.77;54.86;101012.91;5009688;28;20145;-79
2022/09/12 03:35:17;;;;;;;15.68;7.85;;;;;;;23.62;54.94;100987.66;5010431;28;20096;-79
2022/09/12 03:37:47;;;;;;;15.65;6.90;;;;;;;23.72;55.82;101009.47;5005615;28;20393;-79
2022/09/12 03:40:15;;;;;;;16.02;7.53;;;;;;;23.72;55.61;101009.47;5009632;28;20166;-81
2022/09/12 03:42:44;;;;;;;16.35;7.22;;;;;;;23.69;55.63;101026.25;5009052;28;20064;-80
2022/09/12 03:45:13;;;;;;;19.55;8.07;;;;;;;23.60;55.62;101029.09;5015476;28;20058;-84
2022/09/12 03:47:41;;;;;;;18.95;7.68;;;;;;;23.58;55.80;101050.25;5011491;28;20062;-81
2022/09/12 03:50:10;;;;;;;18.73;9.70;;;;;;;23.50;56.77;101054.81;5012701;28;20045;-83
2022/09/12 03:52:41;;;;;;;15.25;7.72;;;;;;;23.39;56.34;101033.03;5013474;28;20057;-83
2022/09/12 03:55:10;;;;;;;17.40;8.27;;;;;;;23.35;57.17;101041.91;5013840;28;20462;-83
2022/09/12 03:57:38;;;;;;;24.15;9.38;;;;;;;23.40;58.03;101071.72;5003699;28;20049;-80
2022/09/12 04:00:09;;;;;;;18.38;8.30;;;;;;;23.29;58.11;101061.34;5012691;28;20057;-79
2022/09/12 04:02:38;;;;;;;15.73;7.47;;;;;;;23.26;57.23;101068.47;5004018;28;20065;-80
2022/09/12 04:05:07;;;;;;;20.17;8.65;;;;;;;23.01;57.60;101066.25;5012152;28;20049;-79
2022/09/12 04:07:35;;;;;;;21.17;9.15;;;;;;;22.97;57.80;101080.34;5011648;28;20086;-83
2022/09/12 04:10:06;;;;;;;22.13;8.63;;;;;;;22.89;58.21;101079.63;5016435;28;20408;-81
2022/09/12 04:12:36;;;;;;;18.85;7.60;;;;;;;22.84;59.52;101092.00;5012751;28;20057;-85
2022/09/12 04:15:06;;;;;;;16.95;8.43;;;;;;;22.86;58.70;101103.41;5004517;28;20046;-84
2022/09/12 04:17:36;;;;;;;23.65;8.80;;;;;;;22.82;59.27;101099.97;5014186;28;20050;-85
2022/09/12 04:20:06;;;;;;;20.00;8.07;;;;;;;22.77;60.42;101093.88;5004677;28;20058;-85
2022/09/12 04:22:35;;;;;;;14.80;7.75;;;;;;;22.63;61.57;101091.47;5013030;28;20459;-86
2022/09/12 04:25:06;;;;;;;19.80;7.72;;;;;;;22.59;60.37;101100.31;5005577;28;20050;-84
2022/09/12 04:27:34;;;;;;;19.70;8.27;;;;;;;22.49;59.75;101103.97;5011813;28;20100;-83
2022/09/12 04:30:03;;;;;;;16.02;8.15;;;;;;;22.46;59.41;101106.66;5016113;28;20403;-84
2022/09/12 04:32:32;;;;;;;20.33;8.75;;;;;;;22.36;60.06;101098.88;5019249;28;20404;-83
2022/09/12 04:35:01;;;;;;;22.45;8.70;;;;;;;22.46;60.50;101122.47;5012905;28;20050;-86
2022/09/12 04:37:29;;;;;;;16.45;8.32;;;;;;;22.41;61.25;101119.03;5021476;28;20053;-84
2022/09/12 04:40:04;;;;;;;17.48;8.18;;;;;;;22.38;60.42;101109.41;5024199;28;20503;-85
2022/09/12 04:42:35;;;;;;;17.83;8.38;;;;;;;22.27;61.20;101090.22;5000445;28;20049;-81
2022/09/12 04:45:05;;;;;;;21.50;7.88;;;;;;;22.32;61.63;101107.72;5006891;28;20057;-84
2022/09/12 04:47:33;;;;;;;14.32;8.02;;;;;;;22.24;61.46;101095.50;5013905;28;20049;-78
2022/09/12 04:50:02;;;;;;;17.67;8.40;;;;;;;22.11;61.93;101078.97;5007809;28;20056;-78
2022/09/12 04:52:30;;;;;;;17.80;8.45;;;;;;;22.00;61.78;101065.94;5012212;28;20046;-82
2022/09/12 04:54:59;;;;;;;24.67;8.77;;;;;;;22.00;61.75;101062.44;5002178;28;20050;-80
2022/09/12 04:57:28;;;;;;;21.17;8.98;;;;;;;22.05;61.56;101057.97;4999085;28;20078;-83
2022/09/12 04:59:58;;;;;;;18.20;8.73;;;;;;;21.90;61.68;101020.41;5005387;28;20057;-80
2022/09/12 05:02:27;;;;;;;24.25;8.93;;;;;;;21.94;61.71;101024.75;5010406;28;20045;-81
2022/09/12 05:04:56;;;;;;;19.02;8.77;;;;;;;21.80;62.27;101023.16;5014041;28;20436;-80
2022/09/12 05:07:25;;;;;;;19.45;8.85;;;;;;;21.71;62.28;101038.16;5014716;28;20054;-84
2022/09/12 05:09:54;;;;;;;24.58;9.02;;;;;;;21.54;63.39;101046.28;5016482;28;20499;-83
2022/09/12 05:12:22;;;;;;;18.98;8.60;;;;;;;21.49;64.27;101058.63;5010716;28;20042;-81
2022/09/12 05:14:51;;;;;;;19.33;8.23;;;;;;;21.36;64.58;101045.59;5006869;28;20074;-78
2022/09/12 05:17:21;;;;;;;20.02;8.88;;;;;;;21.43;64.19;101058.69;5005780;28;20455;-77
2022/09/12 05:19:50;;;;;;;22.38;8.85;;;;;;;21.37;63.76;101042.91;4995039;28;20061;-76
2022/09/12 05:22:19;;;;;;;18.10;8.85;;;;;;;21.47;64.07;101049.88;4986700;28;21018;-77
2022/09/12 05:24:47;;;;;;;15.70;8.15;;;;;;;21.33;64.33;101028.94;4987869;28;20516;-77
2022/09/12 05:27:16;;;;;;;19.17;8.50;;;;;;;21.38;64.50;101033.28;4991566;28;20042;-79
2022/09/12 05:29:44;;;;;;;20.70;8.23;;;;;;;21.49;64.72;101044.59;4995888;28;20046;-76
2022/09/12 05:32:13;;;;;;;21.02;9.13;;;;;;;21.40;64.14;101010.44;4991604;28;20050;-77
2022/09/12 05:34:43;;;;;;;19.38;8.93;;;;;;;21.45;63.76;101024.47;4983201;28;20058;-76
2022/09/12 05:37:12;;;;;;;22.67;8.98;;;;;;;21.50;64.17;101043.69;4987888;28;20104;-77
2022/09/12 05:39:41;;;;;;;21.17;8.98;;;;;;;21.37;64.59;101032.38;4991891;28;20042;-78
2022/09/12 05:42:09;;;;;;;20.83;8.35;;;;;;;21.36;65.43;101045.59;4991819;28;20046;-78
2022/09/12 05:44:38;;;;;;;18.92;8.57;;;;;;;21.22;65.53;101053.63;4989377;28;20058;-75
2022/09/12 05:47:07;;;;;;;21.05;8.20;;;;;;;21.07;66.04;101042.34;4990449;28;20042;-79
2022/09/12 05:49:36;;;;;;;22.02;9.00;;;;;;;21.11;65.78;101046.69;4991070;28;20046;-79
2022/09/12 05:52:07;;;;;;;23.38;8.68;;;;;;;21.01;66.25;101044.16;4988443;28;20046;-78
2022/09/12 05:54:36;;;;;;;25.02;9.65;;;;;;;20.92;66.03;101048.63;4991986;28;20081;-79
2022/09/12 05:57:04;;;;;;;21.55;11.02;;;;;;;20.98;66.29;101066.13;4990997;28;20130;-78
2022/09/12 05:59:33;;;;;;;24.30;8.75;;;;;;;21.00;67.30;101084.50;4991829;28;20038;-80
2022/09/12 06:02:02;;;;;;;16.70;8.98;;;;;;;20.88;67.61;101080.22;4978802;28;20560;-76
2022/09/12 06:04:31;;;;;;;18.08;8.25;;;;;;;20.73;68.41;101083.84;4981395;28;20050;-79
2022/09/12 06:06:59;;;;;;;26.13;9.48;;;;;;;20.73;67.85;101093.47;4990847;28;20471;-76
2022/09/12 06:09:30;;;;;;;19.50;8.80;;;;;;;20.74;68.02;101095.22;4991657;28;20054;-76
2022/09/12 06:11:59;;;;;;;21.85;8.73;;;;;;;20.79;68.00;101083.78;4978433;28;20057;-76
2022/09/12 06:14:28;;;;;;;16.92;9.00;;;;;;;20.82;67.92;101099.56;4983867;28;20571;-77
2022/09/12 06:16:56;;;;;;;21.35;8.85;;;;;;;20.86;67.77;101096.00;4977647;28;20388;-78
2022/09/12 06:19:26;;;;;;;16.92;8.65;;;;;;;20.90;67.73;101105.63;4988272;28;20057;-77
2022/09/12 06:21:55;;;;;;;21.17;8.55;;;;;;;20.68;67.50;101083.88;5012382;28;20046;-77
2022/09/12 06:24:24;;;;;;;19.65;9.27;;;;;;;20.70;67.52;101084.72;5013223;28;20045;-79
2022/09/12 06:26:54;;;;;;;17.98;8.70;;;;;;;20.80;67.38;101109.22;5010895;28;20050;-75
2022/09/12 06:29:23;;;;;;;23.95;9.32;;;;;;;20.81;67.67;101112.72;5009075;28;20060;-77
2022/09/12 06:31:52;;;;;;;18.77;8.50;;;;;;;20.79;67.39;101122.38;5001345;28;20060;-77
2022/09/12 06:34:20;;;;;;;18.13;8.85;;;;;;;20.78;67.94;101110.13;5007643;28;20056;-76
2022/09/12 06:36:50;;;;;;;19.63;8.85;;;;;;;20.63;67.84;101090.03;5005661;28;20046;-80
2022/09/12 06:39:20;;;;;;;17.48;8.35;;;;;;;20.51;67.89;101069.94;5011054;28;20072;-78
2022/09/12 06:41:49;;;;;;;19.42;9.02;;;;;;;20.59;68.02;101073.44;4992952;28;20065;-76
2022/09/12 06:44:21;;;;;;;21.58;8.95;;;;;;;20.58;68.15;101065.53;5006117;28;20046;-79
2022/09/12 06:46:52;;;;;;;18.40;9.27;;;;;;;20.56;68.12;101062.00;5011165;28;20057;-77
2022/09/12 06:49:21;;;;;;;17.13;8.85;;;;;;;20.61;68.29;101070.75;5000450;28;20046;-77
2022/09/12 06:51:49;;;;;;;23.10;9.52;;;;;;;20.49;68.30;101067.31;5010669;28;20052;-76
2022/09/12 06:54:18;;;;;;;20.58;9.05;;;;;;;20.45;68.43;101075.22;5009541;28;20125;-76
2022/09/12 06:56:47;;;;;;;18.90;8.98;;;;;;;20.36;69.05;101070.00;5009515;28;20057;-77
2022/09/12 06:59:15;;;;;;;17.35;9.48;;;;;;;20.35;69.59;101068.28;5006679;28;20121;-79
2022/09/12 07:01:46;;;;;;;24.05;9.70;;;;;;;20.28;70.13;101062.19;4992236;28;20407;-79
2022/09/12 07:04:14;;;;;;;18.60;9.25;;;;;;;20.30;70.01;101074.44;5011281;28;20068;-77
2022/09/12 07:06:43;;;;;;;20.20;9.32;;;;;;;20.29;71.35;101080.59;5017120;28;20408;-77
2022/09/12 07:09:15;;;;;;;21.88;9.55;;;;;;;20.14;72.85;101074.53;4997709;28;20072;-78
2022/09/12 07:11:44;;;;;;;26.57;10.43;;;;;;;20.13;72.85;101097.28;5009703;28;20108;-78
2022/09/12 07:14:14;;;;;;;18.10;9.45;;;;;;;20.09;74.15;101093.81;4995991;28;20653;-76
2022/09/12 07:16:45;;;;;;;21.75;9.30;;;;;;;19.92;74.58;101076.38;5007140;28;20487;-75
2022/09/12 07:19:13;;;;;;;23.23;10.35;;;;;;;19.96;75.62;101093.88;5010195;28;20573;-76
2022/09/12 07:21:42;;;;;;;22.17;9.90;;;;;;;19.94;76.10;101109.63;5013238;28;20046;-76
2022/09/12 07:24:11;;;;;;;21.05;10.40;;;;;;;19.82;75.77;101097.41;5004408;28;20412;-75
2022/09/12 07:26:41;;;;;;;18.08;9.55;;;;;;;19.85;75.92;101107.03;5008690;28;20050;-77
2022/09/12 07:29:16;;;;;;;22.65;10.40;;;;;;;19.73;75.65;101100.06;5013146;28;20372;-76
2022/09/12 07:31:47;;;;;;;20.67;9.48;;;;;;;19.76;76.81;101115.78;5008855;28;20403;-75
2022/09/12 07:34:16;;;;;;;26.02;10.05;;;;;;;19.57;77.90;101098.31;5010967;28;20038;-74
2022/09/12 07:36:44;;;;;;;20.90;9.60;;;;;;;19.46;77.36;101086.06;5012627;28;20045;-73
2022/09/12 07:39:13;;;;;;;16.75;9.18;;;;;;;19.52;77.72;101093.09;5001893;28;20049;-73
2022/09/12 07:41:42;;;;;;;25.15;9.73;;;;;;;19.65;78.54;101112.28;5006960;28;20046;-73
2022/09/12 07:44:11;;;;;;;20.80;10.20;;;;;;;19.57;78.59;101098.31;5005043;28;20104;-74
2022/09/12 07:46:40;;;;;;;20.25;9.90;;;;;;;19.66;78.79;101111.44;5006813;28;20401;-75
2022/09/12 07:49:12;;;;;;;23.48;10.38;;;;;;;19.67;79.17;101097.41;5003337;28;20392;-74
2022/09/12 07:51:42;;;;;;;20.92;10.50;;;;;;;19.49;79.17;101064.19;5014054;28;20517;-73
2022/09/12 07:54:10;;;;;;;27.85;9.65;;;;;;;19.65;79.26;101101.78;5013842;28;20126;-74
2022/09/12 07:56:39;;;;;;;18.98;10.30;;;;;;;19.44;80.30;101077.34;5011385;28;20050;-75
2022/09/12 07:59:08;;;;;;;23.08;10.02;;;;;;;19.60;80.89;101120.16;5012959;28;20045;-74
2022/09/12 08:01:38;;;;;;;21.50;9.48;;;;;;;19.42;81.39;101089.63;5013857;28;20050;-75
2022/09/12 08:04:07;;;;;;;22.02;9.82;;;;;;;19.37;81.23;101096.59;5007864;28;20046;-74
2022/09/12 08:06:37;;;;;;;19.88;10.13;;;;;;;19.46;81.81;101101.81;4994334;28;20054;-75
2022/09/12 08:09:07;;;;;;;22.25;9.82;;;;;;;19.46;81.94;101096.56;5014444;28;20048;-75
2022/09/12 08:11:36;;;;;;;22.55;9.48;;;;;;;19.53;81.86;101114.94;5012691;28;20503;-75
2022/09/12 08:14:05;;;;;;;23.35;10.25;;;;;;;19.33;82.39;101062.50;5012369;28;20061;-76
2022/09/12 08:16:34;;;;;;;22.58;10.10;;;;;;;19.41;82.54;101077.34;5002466;28;20093;-74
2022/09/12 08:19:04;;;;;;;20.75;9.93;;;;;;;19.49;82.16;101100.94;5008203;28;20464;-74
2022/09/12 08:21:34;;;;;;;21.38;10.70;;;;;;;19.35;81.99;101084.34;5011241;28;20136;-74
2022/09/12 08:24:06;;;;;;;21.52;9.90;;;;;;;19.35;82.07;101093.09;5010275;28;20483;-74
2022/09/12 08:26:34;;;;;;;;;;;;;;;19.39;82.23;101121.09;5011257;28;20458;-73
2022/09/12 08:29:04;;;;;;;19.38;10.63;;;;;;;19.29;82.44;101081.72;4997319;28;19925;-73
2022/09/12 08:31:35;;;;;;;20.25;10.07;;;;;;;19.20;83.52;101085.25;5006085;28;20104;-74
2022/09/12 08:34:05;;;;;;;20.92;10.27;;;;;;;19.08;84.22;101085.25;5002005;28;20056;-74
2022/09/12 08:36:34;;;;;;;18.48;9.88;;;;;;;19.17;85.38;101103.59;5013334;28;20038;-73
2022/09/12 08:39:05;;;;;;;22.83;11.80;;;;;;;19.07;86.59;101086.13;5013479;28;20050;-73
2022/09/12 08:41:38;;;;;;;18.38;9.38;;;;;;;19.03;87.36;101080.00;5012416;28;20056;-73
2022/09/12 08:44:22;;;;;;;19.05;10.18;;;;;;;19.02;86.80;101073.03;5014307;28;20049;-73
2022/09/12 08:47:10;;;;;;;21.67;11.05;;;;;;;19.08;87.00;101093.13;5006926;28;20444;-74
2022/09/12 08:49:46;;;;;;;17.70;10.23;;;;;;;18.85;87.52;101065.13;5007387;28;20046;-73
2022/09/12 08:52:19;;;;;;;19.00;9.80;;;;;;;18.96;88.27;101094.84;5000197;28;20077;-73
2022/09/12 08:54:50;;;;;;;18.85;9.73;;;;;;;18.92;88.06;101106.25;5003723;28;20050;-74
2022/09/12 08:57:19;;;;;;;20.95;10.15;;;;;;;18.80;88.21;101082.63;5008574;28;20053;-73
2022/09/12 08:59:49;;;;;;;20.63;10.15;;;;;;;18.95;87.99;101087.00;5005182;28;20411;-73
2022/09/12 09:02:47;;;;;;;21.42;9.95;;;;;;;18.89;87.66;101074.75;5014286;28;20438;-74
2022/09/12 09:05:22;;;;;;;18.75;9.35;;;;;;;18.96;87.53;101087.00;5011726;28;20096;-73
2022/09/12 09:08:25;;;;;;;25.88;9.90;;;;;;;18.97;87.06;101086.13;5011378;28;20045;-73
2022/09/12 09:11:00;;;;;;;;;;;;;;;18.93;87.26;101068.66;5001273;28;20581;-74
2022/09/12 09:16:35;;;;;;;16.23;9.38;;;;;;;18.90;86.94;101062.50;5007783;28;20184;-73
2022/09/12 09:19:10;;;;;;;19.17;9.82;;;;;;;18.91;86.51;101078.25;5009298;28;20416;-72
2022/09/12 09:21:45;;;;;;;21.23;9.93;;;;;;;18.90;87.41;101084.38;5011540;28;20518;-73
2022/09/12 09:24:17;;;;;;;20.23;10.07;;;;;;;18.82;87.48;101076.50;5009637;28;20491;-74
2022/09/12 09:26:53;;;;;;;20.80;10.60;;;;;;;18.78;88.10;101071.25;5011816;28;20116;-73
2022/09/12 09:29:25;;;;;;;23.95;10.23;;;;;;;18.68;87.94;101046.75;4999300;28;20465;-73
2022/09/12 09:31:56;;;;;;;21.58;11.02;;;;;;;18.83;87.81;101045.94;5010993;28;20042;-73
2022/09/12 09:34:27;;;;;;;20.15;9.68;;;;;;;18.70;87.53;101024.03;5001158;28;20138;-73
2022/09/12 09:37:06;;;;;;;19.58;9.27;;;;;;;18.68;88.23;101032.78;5009434;28;20042;-74
2022/09/12 09:39:47;;;;;;;19.77;9.57;;;;;;;18.58;87.88;101040.63;5011763;28;20411;-74
2022/09/12 09:42:28;;;;;;;21.85;10.48;;;;;;;18.56;88.49;101034.53;5009357;28;20046;-74
2022/09/12 09:45:00;;;;;;;20.35;10.52;;;;;;;18.52;89.17;101024.91;5011381;28;20666;-74
2022/09/12 09:47:29;;;;;;;21.13;10.32;;;;;;;18.52;88.63;101040.63;5007054;28;20495;-74
2022/09/12 09:49:57;;;;;;;20.67;9.63;;;;;;;18.60;89.03;101059.88;5009209;28;20057;-74
2022/09/12 09:52:36;;;;;;;23.48;9.90;;;;;;;18.57;89.31;101049.34;5011480;28;20116;-74
2022/09/12 09:55:13;;;;;;;18.42;9.65;;;;;;;18.56;89.00;101060.72;5000230;28;20054;-73
2022/09/12 09:57:45;;;;;;;17.80;10.27;;;;;;;18.35;88.77;101029.25;4996929;28;20122;-73
2022/09/12 10:00:32;;;;;;;17.77;10.18;;;;;;;18.29;89.25;101022.25;5007845;28;20683;-75
2022/09/12 10:03:22;;;;;;;18.02;9.95;;;;;;;18.41;89.85;101058.94;5003782;28;20050;-74
2022/09/12 10:05:53;;;;;;;17.15;9.57;;;;;;;18.39;90.58;101062.44;4995781;28;20058;-74
2022/09/12 10:08:25;;;;;;;19.05;10.40;;;;;;;18.36;91.06;101050.19;5004972;28;20554;-73
2022/09/12 10:10:59;;;;;;;20.35;8.65;;;;;;;18.24;90.84;101026.59;4999714;28;20057;-74
2022/09/12 10:13:38;;;;;;;20.85;9.70;;;;;;;18.30;90.45;101031.88;5010353;28;20487;-73
2022/09/12 10:16:10;;;;;;;21.67;9.77;;;;;;;18.43;89.91;101051.97;5011798;28;20100;-74
2022/09/12 10:18:52;;;;;;;19.73;10.68;;;;;;;18.41;89.17;101063.31;5001310;28;20053;-74
2022/09/12 10:21:40;;;;;;;20.08;10.40;;;;;;;18.22;90.57;101054.53;4980679;28;20057;-73
2022/09/12 10:24:22;;;;;;;21.38;9.35;;;;;;;18.07;91.82;101052.72;4983017;28;20046;-73
2022/09/12 10:26:53;;;;;;;23.10;10.02;;;;;;;18.16;92.61;101078.97;4990838;28;20054;-73
2022/09/12 10:29:28;;;;;;;21.02;10.40;;;;;;;18.03;92.93;101060.56;4986792;28;20038;-73
2022/09/12 10:32:01;;;;;;;18.17;8.70;;;;;;;18.09;92.53;101079.78;4989904;28;20416;-73
2022/09/12 10:34:32;;;;;;;18.67;10.45;;;;;;;18.07;92.63;101083.28;4987055;28;20061;-72
2022/09/12 10:37:04;;;;;;;18.80;9.85;;;;;;;18.03;92.38;101076.28;4990076;28;20101;-72
2022/09/12 10:39:34;;;;;;;17.15;8.27;;;;;;;18.06;92.67;101081.53;4979768;28;20046;-73
2022/09/12 10:42:04;;;;;;;20.15;9.45;;;;;;;17.98;92.66;101060.56;4983238;28;20092;-74
2022/09/12 10:44:36;;;;;;;13.65;7.35;;;;;;;18.02;92.08;101062.31;4990919;28;20081;-74
2022/09/12 10:47:23;;;;;;;20.77;9.50;;;;;;;18.13;91.69;101084.19;4989994;28;21433;-73
2022/09/12 10:49:51;;;;;;;20.40;10.55;;;;;;;18.05;91.51;101075.44;4992826;28;20050;-74
2022/09/12 10:52:24;;;;;;;16.05;9.13;;;;;;;18.01;92.10;101081.53;4990276;28;20381;-74
2022/09/12 10:54:53;;;;;;;21.30;10.68;;;;;;;18.00;92.30;101087.63;4991046;28;20515;-74
2022/09/12 10:57:48;;;;;;;23.80;10.02;;;;;;;17.93;92.18;101054.44;4989594;28;20130;-74
2022/09/12 11:00:26;;;;;;;17.70;9.80;;;;;;;18.05;91.59;101064.97;4989774;28;20065;-74
2022/09/12 11:03:15;;;;;;;20.23;9.90;;;;;;;18.00;91.30;101040.50;4990878;28;20047;-74
2022/09/12 11:05:55;;;;;;;18.33;9.30;;;;;;;18.09;90.77;101058.84;4981627;28;20055;-74
2022/09/12 11:08:39;;;;;;;21.27;10.07;;;;;;;18.04;90.58;101071.06;4990452;28;20046;-74
2022/09/12 11:11:18;;;;;;;13.50;9.45;;;;;;;17.91;91.06;101056.16;4991197;28;20058;-73
2022/09/12 11:14:07;;;;;;;27.02;9.90;;;;;;;17.87;92.14;101076.22;4980061;28;20047;-74
2022/09/12 11:16:46;;;;;;;18.20;10.20;;;;;;;17.79;92.44;101077.91;4988673;28;20046;-74
2022/09/12 11:19:32;;;;;;;22.02;9.82;;;;;;;17.68;93.68;101064.75;4996890;28;20427;-74
2022/09/12 11:22:22;;;;;;;14.02;8.05;;;;;;;17.56;93.79;101033.28;4998674;28;20053;-74
2022/09/12 11:25:12;;;;;;;18.98;9.60;;;;;;;17.69;93.99;101066.50;5003761;28;20064;-75
2022/09/12 11:28:05;;;;;;;20.40;9.13;;;;;;;17.69;93.95;101079.59;5009522;28;20466;-73
2022/09/12 11:30:44;;;;;;;15.63;8.77;;;;;;;17.53;94.12;101076.00;4992912;28;20485;-74
2022/09/12 11:33:37;;;;;;;19.40;10.07;;;;;;;17.47;94.81;101081.19;5007102;28;20046;-74
2022/09/12 11:36:17;;;;;;;17.25;10.05;;;;;;;17.39;93.48;101072.44;4999567;28;20125;-73
2022/09/12 11:39:02;;;;;;;14.95;8.85;;;;;;;17.50;93.91;101085.56;5008159;28;20076;-74
2022/09/12 11:41:33;;;;;;;22.10;9.73;;;;;;;17.60;93.50;101092.63;5008979;28;20085;-75
2022/09/12 11:44:16;;;;;;;20.17;8.57;;;;;;;17.67;93.61;101097.03;5003184;28;20106;-74
2022/09/12 11:46:44;;;;;;;;;;;;;;;17.68;92.54;101106.63;5010075;28;20050;-75
2022/09/12 11:49:24;;;;;;;18.65;8.85;;;;;;;17.68;92.07;101117.09;5010064;28;19996;-74